createdAt,value
2023-03-08T00:00:48.676Z,9.85
2023-03-08T00:03:15.996Z,9.38
2023-03-08T00:05:44.281Z,9.68
2023-03-08T00:08:11.398Z,8.82
2023-03-08T00:10:38.510Z,9.43
2023-03-08T00:13:05.278Z,9.95
2023-03-08T00:15:32.038Z,10.57
2023-03-08T00:17:58.828Z,10.85
2023-03-08T00:20:25.603Z,11.38
2023-03-08T00:22:52.493Z,10.10
2023-03-08T00:25:19.306Z,9.45
2023-03-08T00:27:46.205Z,10.38
2023-03-08T00:30:13.760Z,10.60
2023-03-08T00:32:40.642Z,10.00
2023-03-08T00:35:08.034Z,9.50
2023-03-08T00:37:34.846Z,10.00
2023-03-08T00:40:01.699Z,9.75
2023-03-08T00:42:28.503Z,9.05
2023-03-08T00:44:55.272Z,7.50
2023-03-08T00:47:22.060Z,8.48
2023-03-08T00:49:48.824Z,7.57
2023-03-08T00:52:15.649Z,7.80
2023-03-08T00:54:42.493Z,8.30
2023-03-08T00:57:09.272Z,6.90
2023-03-08T00:59:36.168Z,7.30
2023-03-08T01:02:03.039Z,7.20
2023-03-08T01:04:29.875Z,6.72
2023-03-08T01:06:56.620Z,6.45
2023-03-08T01:09:23.379Z,7.70
2023-03-08T01:11:50.157Z,7.05
2023-03-08T01:14:16.908Z,6.97
2023-03-08T01:16:43.717Z,6.97
2023-03-08T01:19:11.572Z,6.80
2023-03-08T01:21:38.412Z,6.47
2023-03-08T01:24:05.934Z,6.72
2023-03-08T01:26:32.749Z,7.07
2023-03-08T01:28:59.672Z,6.88
2023-03-08T01:31:29.718Z,6.40
2023-03-08T01:33:57.605Z,6.82
2023-03-08T01:36:26.722Z,6.18
2023-03-08T01:38:53.794Z,6.55
2023-03-08T01:41:27.325Z,5.97
2023-03-08T01:43:55.035Z,6.22
2023-03-08T01:46:33.615Z,5.90
2023-03-08T01:49:23.067Z,5.82
2023-03-08T01:52:11.369Z,6.13
2023-03-08T01:54:51.538Z,6.00
2023-03-08T01:57:24.139Z,5.97
2023-03-08T01:59:53.900Z,5.60
2023-03-08T02:02:28.267Z,6.40
2023-03-08T02:04:55.277Z,5.10
2023-03-08T02:07:22.050Z,5.20
2023-03-08T02:09:49.448Z,5.45
2023-03-08T02:12:16.652Z,5.75
2023-03-08T02:14:44.588Z,5.65
2023-03-08T02:17:12.186Z,5.28
2023-03-08T02:19:46.450Z,5.22
2023-03-08T02:22:15.915Z,5.32
2023-03-08T02:24:43.153Z,5.53
2023-03-08T02:27:17.586Z,5.43
2023-03-08T02:29:44.559Z,5.32
2023-03-08T02:32:11.358Z,5.35
2023-03-08T02:34:38.178Z,5.35
2023-03-08T02:37:04.952Z,5.57
2023-03-08T02:39:31.702Z,5.20
2023-03-08T02:41:58.456Z,5.25
2023-03-08T02:44:25.332Z,5.43
2023-03-08T02:46:52.795Z,6.00
2023-03-08T02:49:19.753Z,5.30
2023-03-08T02:51:46.535Z,5.32
2023-03-08T02:54:15.348Z,5.18
2023-03-08T02:56:43.299Z,5.22
2023-03-08T02:59:10.085Z,4.97
2023-03-08T03:01:37.310Z,4.38
2023-03-08T03:04:04.213Z,4.90
2023-03-08T03:06:31.042Z,4.88
2023-03-08T03:08:57.871Z,5.13
2023-03-08T03:11:24.701Z,4.97
2023-03-08T03:13:57.539Z,4.80
2023-03-08T03:16:25.150Z,5.10
2023-03-08T03:18:56.564Z,5.03
2023-03-08T03:21:24.115Z,5.15
2023-03-08T03:23:51.051Z,5.30
2023-03-08T03:26:22.008Z,5.50
2023-03-08T03:28:49.436Z,5.18
2023-03-08T03:31:19.787Z,5.20
2023-03-08T03:33:47.321Z,5.65
2023-03-08T03:36:18.443Z,5.90
2023-03-08T03:38:46.185Z,6.03
2023-03-08T03:41:16.678Z,6.05
2023-03-08T03:43:44.442Z,6.72
2023-03-08T03:46:14.806Z,7.05
2023-03-08T03:48:41.622Z,6.68
2023-03-08T03:51:16.257Z,6.88
2023-03-08T03:53:43.728Z,8.13
2023-03-08T03:56:20.127Z,6.93
2023-03-08T03:58:47.410Z,6.63
2023-03-08T04:01:29.854Z,7.18
2023-03-08T04:03:57.534Z,7.22
2023-03-08T04:06:33.014Z,6.32
2023-03-08T04:09:07.248Z,7.10
2023-03-08T04:11:37.641Z,6.88
2023-03-08T04:14:05.378Z,6.28
2023-03-08T04:16:35.576Z,6.97
2023-03-08T04:19:06.809Z,6.47
2023-03-08T04:21:33.958Z,6.00
2023-03-08T04:24:01.035Z,6.85
2023-03-08T04:26:28.129Z,6.00
2023-03-08T04:28:55.194Z,8.02
2023-03-08T04:31:25.667Z,7.03
2023-03-08T04:33:53.221Z,7.07
2023-03-08T04:36:21.063Z,6.50
2023-03-08T04:38:48.942Z,6.75
2023-03-08T04:41:16.464Z,6.97
2023-03-08T04:43:55.842Z,8.00
2023-03-08T04:46:26.723Z,7.22
2023-03-08T04:48:55.583Z,7.70
2023-03-08T04:51:24.795Z,7.53
2023-03-08T04:53:51.602Z,7.13
2023-03-08T04:56:19.298Z,7.03
2023-03-08T04:58:46.221Z,8.30
2023-03-08T05:01:19.772Z,7.68
2023-03-08T05:03:49.437Z,6.20
2023-03-08T05:06:16.240Z,7.35
2023-03-08T05:08:43.750Z,6.90
2023-03-08T05:11:19.003Z,7.38
2023-03-08T05:13:46.119Z,7.53
2023-03-08T05:16:13.398Z,7.55
2023-03-08T05:18:40.220Z,7.88
2023-03-08T05:21:12.341Z,8.23
2023-03-08T05:23:39.177Z,7.35
2023-03-08T05:26:08.238Z,7.90
2023-03-08T05:28:39.431Z,8.07
2023-03-08T05:31:19.291Z,7.85
2023-03-08T05:33:49.825Z,8.23
2023-03-08T05:36:17.770Z,8.15
2023-03-08T05:38:45.018Z,7.88
2023-03-08T05:41:15.950Z,9.32
2023-03-08T05:43:42.802Z,9.60
2023-03-08T05:46:17.650Z,11.18
2023-03-08T05:48:45.512Z,12.23
2023-03-08T05:51:15.666Z,12.10
2023-03-08T05:53:43.345Z,11.77
2023-03-08T05:56:20.204Z,13.02
2023-03-08T05:58:48.349Z,11.57
2023-03-08T06:01:24.796Z,12.18
2023-03-08T06:03:54.616Z,12.13
2023-03-08T06:06:26.043Z,11.35
2023-03-08T06:08:53.898Z,11.10
2023-03-08T06:11:20.707Z,12.13
2023-03-08T06:13:47.538Z,10.13
2023-03-08T06:16:14.653Z,10.68
2023-03-08T06:18:42.673Z,9.48
2023-03-08T06:21:14.639Z,9.63
2023-03-08T06:23:41.698Z,11.10
2023-03-08T06:26:09.424Z,11.73
2023-03-08T06:28:36.901Z,10.68
2023-03-08T06:31:04.405Z,11.90
2023-03-08T06:33:33.121Z,12.00
2023-03-08T06:36:03.407Z,12.48
2023-03-08T06:38:33.545Z,15.23
2023-03-08T06:41:01.272Z,16.05
2023-03-08T06:43:28.776Z,14.52
2023-03-08T06:45:56.000Z,16.50
2023-03-08T06:48:22.926Z,14.75
2023-03-08T06:50:49.775Z,14.82
2023-03-08T06:53:17.122Z,14.25
2023-03-08T06:55:43.891Z,12.52
2023-03-08T06:58:10.665Z,12.48
2023-03-08T07:00:37.476Z,12.98
2023-03-08T07:03:04.317Z,10.93
2023-03-08T07:05:31.411Z,11.23
2023-03-08T07:07:58.588Z,10.57
2023-03-08T07:10:25.356Z,10.50
2023-03-08T07:12:52.433Z,10.55
2023-03-08T07:15:22.854Z,9.07
2023-03-08T07:17:52.141Z,9.43
2023-03-08T07:20:20.453Z,9.45
2023-03-08T07:22:47.681Z,8.60
2023-03-08T07:25:17.054Z,7.85
2023-03-08T07:27:44.097Z,7.60
2023-03-08T07:30:13.980Z,7.28
2023-03-08T07:32:44.948Z,7.30
2023-03-08T07:35:14.988Z,7.47
2023-03-08T07:37:45.851Z,7.90
2023-03-08T07:40:16.173Z,8.02
2023-03-08T07:42:44.173Z,7.78
2023-03-08T07:45:14.947Z,7.50
2023-03-08T07:47:41.804Z,7.57
2023-03-08T07:50:09.693Z,7.38
2023-03-08T07:52:36.483Z,7.13
2023-03-08T07:55:03.335Z,7.60
2023-03-08T07:57:30.155Z,7.53
2023-03-08T07:59:56.933Z,7.20
2023-03-08T08:02:23.689Z,7.28
2023-03-08T08:04:50.780Z,8.27
2023-03-08T08:07:17.924Z,7.88
2023-03-08T08:09:44.755Z,8.30
2023-03-08T08:12:11.640Z,7.68
2023-03-08T08:14:38.517Z,8.52
2023-03-08T08:17:05.785Z,7.47
2023-03-08T08:19:32.737Z,8.90
2023-03-08T08:22:00.576Z,7.93
2023-03-08T08:24:28.639Z,9.25
2023-03-08T08:26:55.495Z,8.35
2023-03-08T08:29:22.302Z,8.32
2023-03-08T08:31:49.180Z,8.65
2023-03-08T08:34:15.996Z,10.93
2023-03-08T08:36:42.770Z,10.60
2023-03-08T08:39:09.545Z,10.13
2023-03-08T08:41:36.290Z,11.20
2023-03-08T08:44:04.551Z,10.25
2023-03-08T08:46:33.998Z,10.85
2023-03-08T08:49:02.298Z,11.43
2023-03-08T08:51:29.129Z,11.20
2023-03-08T08:53:55.934Z,11.23
2023-03-08T08:56:30.397Z,11.07
2023-03-08T08:59:00.838Z,10.95
2023-03-08T09:01:31.504Z,11.82
2023-03-08T09:03:59.417Z,11.48
2023-03-08T09:06:29.120Z,11.68
2023-03-08T09:08:58.533Z,10.68
2023-03-08T09:11:27.505Z,10.73
2023-03-08T09:13:54.984Z,11.30
2023-03-08T09:16:31.297Z,11.63
2023-03-08T09:19:00.322Z,12.68
2023-03-08T09:21:28.260Z,10.88
2023-03-08T09:23:56.204Z,11.85
2023-03-08T09:26:23.721Z,12.85
2023-03-08T09:28:50.540Z,13.00
2023-03-08T09:31:18.204Z,12.32
2023-03-08T09:33:49.209Z,13.02
2023-03-08T09:36:16.431Z,13.68
2023-03-08T09:38:43.418Z,13.55
2023-03-08T09:41:45.612Z,13.68
2023-03-08T09:44:43.842Z,14.23
2023-03-08T09:48:05.378Z,14.18
2023-03-08T09:50:45.194Z,12.98
2023-03-08T09:53:32.085Z,13.52
2023-03-08T09:56:12.054Z,13.15
2023-03-08T09:58:49.680Z,13.05
2023-03-08T10:01:45.538Z,11.65
2023-03-08T10:05:06.144Z,13.05
2023-03-08T10:08:07.393Z,13.15
2023-03-08T10:11:03.418Z,12.38
2023-03-08T10:13:43.583Z,12.55
2023-03-08T10:16:33.517Z,13.90
2023-03-08T10:19:28.750Z,13.02
2023-03-08T10:21:57.575Z,13.27
2023-03-08T10:24:36.392Z,12.73
2023-03-08T10:27:23.396Z,12.45
2023-03-08T10:29:53.068Z,11.27
2023-03-08T10:32:21.127Z,13.10
2023-03-08T10:34:48.798Z,13.70
2023-03-08T10:37:16.080Z,12.70
2023-03-08T10:39:54.596Z,12.65
2023-03-08T10:42:27.597Z,12.07
2023-03-08T10:45:00.601Z,13.00
2023-03-08T10:47:31.773Z,12.70
2023-03-08T10:50:13.893Z,13.18
2023-03-08T10:52:41.418Z,13.80
2023-03-08T10:55:15.946Z,13.73
2023-03-08T10:57:55.020Z,12.93
2023-03-08T11:00:44.342Z,13.13
2023-03-08T11:03:15.187Z,13.25
2023-03-08T11:05:55.980Z,14.30
2023-03-08T11:08:27.418Z,15.18
2023-03-08T11:11:20.519Z,14.70
2023-03-08T11:13:50.100Z,13.73
2023-03-08T11:16:56.077Z,13.73
2023-03-08T11:19:59.871Z,13.82
2023-03-08T11:22:49.071Z,12.57
2023-03-08T11:25:28.900Z,12.80
2023-03-08T11:28:22.175Z,13.07
2023-03-08T11:31:21.147Z,12.68
2023-03-08T11:34:23.403Z,12.27
2023-03-08T11:37:01.991Z,12.50
2023-03-08T11:40:22.259Z,12.65
2023-03-08T11:43:34.666Z,11.93
2023-03-08T11:46:07.783Z,12.23
2023-03-08T11:49:02.133Z,13.02
2023-03-08T11:51:54.797Z,11.77
2023-03-08T11:55:05.239Z,12.40
2023-03-08T11:57:45.023Z,13.52
2023-03-08T12:00:26.472Z,12.52
2023-03-08T12:02:54.865Z,13.32
2023-03-08T12:05:34.402Z,13.93
2023-03-08T12:08:20.406Z,12.65
2023-03-08T12:11:01.804Z,13.50
2023-03-08T12:13:39.294Z,13.13
2023-03-08T12:16:27.363Z,14.27
2023-03-08T12:19:31.031Z,15.85
2023-03-08T12:22:43.780Z,16.08
2023-03-08T12:25:22.651Z,14.93
2023-03-08T12:27:54.521Z,14.75
2023-03-08T12:30:42.986Z,13.98
2023-03-08T12:33:14.054Z,13.73
2023-03-08T12:35:54.870Z,13.63
2023-03-08T12:38:21.644Z,13.98
2023-03-08T12:40:52.146Z,13.75
2023-03-08T12:43:21.958Z,13.63
2023-03-08T12:46:01.257Z,13.50
2023-03-08T12:48:47.885Z,14.07
2023-03-08T12:51:16.218Z,12.85
2023-03-08T12:53:49.068Z,11.02
2023-03-08T12:56:48.324Z,10.88
2023-03-08T12:59:14.952Z,10.35
2023-03-08T13:01:44.914Z,9.10
2023-03-08T13:04:43.219Z,9.80
2023-03-08T13:07:25.636Z,8.18
2023-03-08T13:10:04.875Z,7.80
2023-03-08T13:13:01.908Z,9.25
2023-03-08T13:15:28.807Z,9.38
2023-03-08T13:18:06.235Z,10.23
2023-03-08T13:20:56.905Z,9.18
2023-03-08T13:23:41.861Z,8.35
2023-03-08T13:26:51.017Z,8.15
2023-03-08T13:29:20.597Z,6.72
2023-03-08T13:31:49.643Z,6.10
2023-03-08T13:34:30.990Z,5.70
2023-03-08T13:36:58.662Z,5.80
2023-03-08T13:39:29.014Z,5.65
2023-03-08T13:42:11.390Z,6.35
2023-03-08T13:44:38.457Z,6.97
2023-03-08T13:47:25.801Z,5.82
2023-03-08T13:49:55.328Z,6.65
2023-03-08T13:52:31.329Z,6.05
2023-03-08T13:55:04.857Z,7.28
2023-03-08T13:57:36.459Z,5.82
2023-03-08T14:00:36.025Z,6.80
2023-03-08T14:03:06.579Z,6.13
2023-03-08T14:05:45.551Z,6.78
2023-03-08T14:08:27.754Z,6.68
2023-03-08T14:11:01.283Z,6.70
2023-03-08T14:13:33.109Z,7.15
2023-03-08T14:16:04.021Z,8.15
2023-03-08T14:18:43.610Z,7.88
2023-03-08T14:21:22.433Z,8.32
2023-03-08T14:23:57.513Z,8.23
2023-03-08T14:26:40.266Z,8.60
2023-03-08T14:29:21.977Z,7.57
2023-03-08T14:32:24.778Z,8.18
2023-03-08T14:34:51.573Z,7.80
2023-03-08T14:37:30.366Z,9.15
2023-03-08T14:40:26.707Z,9.02
2023-03-08T14:43:02.308Z,9.07
2023-03-08T14:45:41.350Z,8.40
2023-03-08T14:48:29.916Z,9.48
2023-03-08T14:51:27.578Z,10.00
2023-03-08T14:54:05.692Z,10.80
2023-03-08T14:56:33.470Z,10.93
2023-03-08T14:59:05.299Z,10.35
2023-03-08T15:01:36.079Z,11.52
2023-03-08T15:04:04.978Z,10.55
2023-03-08T15:06:34.820Z,10.73
2023-03-08T15:09:03.857Z,10.50
2023-03-08T15:11:32.132Z,12.05
2023-03-08T15:13:59.723Z,12.00
2023-03-08T15:16:27.370Z,10.25
2023-03-08T15:18:54.446Z,10.50
2023-03-08T15:21:25.738Z,11.07
2023-03-08T15:23:53.105Z,10.23
2023-03-08T15:26:31.465Z,9.77
2023-03-08T15:28:58.892Z,8.75
2023-03-08T15:31:26.029Z,9.20
2023-03-08T15:33:52.792Z,8.18
2023-03-08T15:36:19.859Z,8.77
2023-03-08T15:38:46.903Z,8.65
2023-03-08T15:41:15.582Z,8.45
2023-03-08T15:43:42.718Z,10.25
2023-03-08T15:46:14.213Z,9.13
2023-03-08T15:48:41.941Z,7.15
2023-03-08T15:51:20.746Z,7.90
2023-03-08T15:53:49.111Z,8.57
2023-03-08T15:56:16.755Z,9.13
2023-03-08T15:58:43.582Z,8.55
2023-03-08T16:01:11.769Z,7.35
2023-03-08T16:03:38.608Z,7.20
2023-03-08T16:06:11.371Z,7.80
2023-03-08T16:08:39.352Z,5.30
2023-03-08T16:11:11.358Z,6.18
2023-03-08T16:13:38.125Z,6.10
2023-03-08T16:16:06.582Z,6.43
2023-03-08T16:18:35.182Z,6.68
2023-03-08T16:21:08.326Z,6.22
2023-03-08T16:23:36.013Z,4.30
2023-03-08T16:26:16.149Z,5.85
2023-03-08T16:28:46.249Z,6.85
2023-03-08T16:31:14.301Z,6.13
2023-03-08T16:33:41.189Z,6.60
2023-03-08T16:36:08.224Z,6.15
2023-03-08T16:38:35.032Z,5.75
2023-03-08T16:41:12.767Z,6.53
2023-03-08T16:43:49.226Z,6.95
2023-03-08T16:46:20.600Z,7.43
2023-03-08T16:48:49.793Z,6.43
2023-03-08T16:51:19.283Z,6.43
2023-03-08T16:53:46.286Z,6.78
2023-03-08T16:56:26.509Z,6.97
2023-03-08T16:58:55.992Z,6.85
2023-03-08T17:01:23.392Z,7.13
2023-03-08T17:03:50.997Z,6.78
2023-03-08T17:06:22.664Z,7.30
2023-03-08T17:08:49.806Z,7.45
2023-03-08T17:11:22.816Z,6.95
2023-03-08T17:13:51.924Z,7.30
2023-03-08T17:16:21.070Z,7.13
2023-03-08T17:18:49.184Z,7.90
2023-03-08T17:21:17.128Z,8.52
2023-03-08T17:23:45.087Z,7.53
2023-03-08T17:26:14.126Z,7.88
2023-03-08T17:28:41.599Z,8.05
2023-03-08T17:31:11.897Z,7.75
2023-03-08T17:33:39.508Z,9.00
2023-03-08T17:36:07.375Z,7.28
2023-03-08T17:38:34.742Z,7.90
2023-03-08T17:41:06.569Z,7.70
2023-03-08T17:43:33.428Z,8.07
2023-03-08T17:46:11.432Z,7.20
2023-03-08T17:48:38.380Z,8.13
2023-03-08T17:51:12.502Z,8.88
2023-03-08T17:56:13.303Z,7.90
2023-03-08T17:58:40.819Z,8.48
2023-03-08T18:01:18.210Z,8.20
2023-03-08T18:03:45.694Z,8.60
2023-03-08T18:06:42.567Z,8.43
2023-03-08T18:09:16.059Z,8.18
2023-03-08T18:11:43.077Z,8.35
2023-03-08T18:15:04.360Z,8.13
2023-03-08T18:17:31.143Z,8.65
2023-03-08T18:19:57.986Z,8.82
2023-03-08T18:22:25.964Z,7.95
2023-03-08T18:24:52.773Z,8.85
2023-03-08T18:27:19.809Z,9.07
2023-03-08T18:29:46.588Z,8.77
2023-03-08T18:32:13.398Z,7.68
2023-03-08T18:34:40.320Z,8.88
2023-03-08T18:37:07.068Z,9.65
2023-03-08T18:39:33.831Z,8.52
2023-03-08T18:42:02.052Z,8.10
2023-03-08T18:44:28.984Z,8.05
2023-03-08T18:46:55.789Z,8.05
2023-03-08T18:49:22.688Z,7.90
2023-03-08T18:51:49.659Z,7.07
2023-03-08T18:54:20.427Z,7.25
2023-03-08T19:00:26.931Z,6.00
2023-03-08T19:02:53.711Z,5.97
2023-03-08T19:05:20.518Z,6.50
2023-03-08T19:07:47.265Z,6.47
2023-03-08T19:10:16.680Z,6.05
2023-03-08T19:12:43.928Z,5.90
2023-03-08T19:15:11.428Z,5.85
2023-03-08T19:17:38.228Z,6.65
2023-03-08T19:20:06.523Z,6.53
2023-03-08T19:22:33.450Z,7.20
2023-03-08T19:25:00.959Z,7.63
2023-03-08T19:27:28.916Z,7.50
2023-03-08T19:29:55.726Z,7.75
2023-03-08T19:32:22.655Z,8.10
2023-03-08T19:34:49.535Z,8.43
2023-03-08T19:37:16.402Z,6.97
2023-03-08T19:39:43.610Z,7.60
2023-03-08T19:42:14.999Z,7.38
2023-03-08T19:44:42.309Z,8.82
2023-03-08T19:47:09.523Z,10.25
2023-03-08T19:49:49.536Z,9.65
2023-03-08T19:52:23.924Z,9.05
2023-03-08T19:54:50.758Z,9.02
2023-03-08T19:57:17.533Z,9.45
2023-03-08T19:59:44.295Z,9.30
2023-03-08T20:02:12.799Z,9.85
2023-03-08T20:04:39.620Z,9.38
2023-03-08T20:07:06.391Z,9.27
2023-03-08T20:09:42.168Z,10.45
2023-03-08T20:12:09.624Z,10.48
2023-03-08T20:14:36.766Z,10.57
2023-03-08T20:17:05.037Z,11.43
2023-03-08T20:19:33.940Z,11.80
2023-03-08T20:22:01.241Z,11.45
2023-03-08T20:24:58.385Z,10.70
2023-03-08T20:27:25.153Z,9.38
2023-03-08T20:29:53.096Z,8.82
2023-03-08T20:32:19.887Z,8.63
2023-03-08T20:34:46.643Z,9.10
2023-03-08T20:37:13.427Z,8.27
2023-03-08T20:39:40.172Z,8.63
2023-03-08T20:42:07.015Z,8.25
2023-03-08T20:44:33.833Z,8.02
2023-03-08T20:47:01.348Z,8.40
2023-03-08T20:49:28.604Z,7.55
2023-03-08T20:51:55.395Z,7.75
2023-03-08T20:54:22.197Z,8.13
2023-03-08T20:56:50.285Z,8.07
2023-03-08T20:59:20.201Z,8.63
2023-03-08T21:01:47.006Z,8.57
2023-03-08T21:04:13.903Z,7.70
2023-03-08T21:06:40.977Z,8.10
2023-03-08T21:09:07.892Z,7.70
2023-03-08T21:11:34.643Z,9.50
2023-03-08T21:14:01.585Z,8.70
2023-03-08T21:16:29.483Z,9.93
2023-03-08T21:19:03.845Z,9.10
2023-03-08T21:21:35.539Z,10.85
2023-03-08T21:24:12.176Z,10.13
2023-03-08T21:26:39.028Z,10.30
2023-03-08T21:29:09.577Z,9.85
2023-03-08T21:31:40.252Z,9.43
2023-03-08T21:34:08.211Z,9.65
2023-03-08T21:36:37.901Z,10.18
2023-03-08T21:39:06.926Z,11.15
2023-03-08T21:41:37.621Z,10.40
2023-03-08T21:44:09.333Z,10.00
2023-03-08T21:46:38.310Z,10.35
2023-03-08T21:49:05.691Z,10.07
2023-03-08T21:51:33.467Z,10.43
2023-03-08T21:54:01.068Z,10.07
2023-03-08T21:56:27.958Z,11.57
2023-03-08T21:58:55.698Z,10.25
2023-03-08T22:01:27.316Z,10.10
2023-03-08T22:03:54.499Z,9.85
2023-03-08T22:06:22.612Z,9.73
2023-03-08T22:09:01.927Z,10.00
2023-03-08T22:11:28.789Z,9.40
2023-03-08T22:13:58.401Z,10.40
2023-03-08T22:16:27.529Z,10.32
2023-03-08T22:19:01.461Z,10.65
2023-03-08T22:21:29.308Z,9.90
2023-03-08T22:23:59.638Z,11.15
2023-03-08T22:26:28.125Z,10.35
2023-03-08T22:28:55.884Z,11.90
2023-03-08T22:31:26.090Z,10.85
2023-03-08T22:33:53.461Z,10.75
2023-03-08T22:36:21.937Z,10.50
2023-03-08T22:38:48.803Z,11.45
2023-03-08T22:41:23.657Z,11.00
2023-03-08T22:43:50.980Z,11.77
2023-03-08T22:46:21.482Z,10.18
2023-03-08T22:48:48.954Z,10.43
2023-03-08T22:51:18.043Z,11.00
2023-03-08T22:53:44.901Z,9.75
2023-03-08T22:56:30.160Z,9.93
2023-03-08T22:58:57.775Z,10.25
2023-03-08T23:01:25.616Z,11.77
2023-03-08T23:03:59.252Z,11.07
2023-03-08T23:06:28.328Z,10.20
2023-03-08T23:09:01.792Z,11.15
2023-03-08T23:11:36.198Z,8.48
2023-03-08T23:14:03.616Z,11.20
2023-03-08T23:16:30.438Z,11.07
2023-03-08T23:18:57.352Z,11.35
2023-03-08T23:21:29.176Z,10.57
2023-03-08T23:23:57.494Z,10.90
2023-03-08T23:26:27.278Z,12.25
2023-03-08T23:28:56.788Z,12.35
2023-03-08T23:31:27.121Z,11.35
2023-03-08T23:33:54.900Z,12.85
2023-03-08T23:36:25.518Z,12.68
2023-03-08T23:38:53.284Z,12.45
2023-03-08T23:41:20.699Z,13.27
2023-03-08T23:43:47.972Z,12.68
2023-03-08T23:46:19.035Z,13.52
2023-03-08T23:48:48.134Z,15.13
2023-03-08T23:51:21.533Z,13.27
2023-03-08T23:53:50.942Z,13.10
2023-03-08T23:56:30.440Z,13.27
2023-03-08T23:58:59.942Z,11.98
